Terminal Aerodrome Forecast
Issued by NWS

Home | Current Version | Previous Version | Graphics & Text | Print | Product List | Glossary On
Versions: 1 2 3 4 5 6 7 8 9 10 11 12 13 14 15 16 17 18 19 20 21 22 23 24 25 26 27 28 29 30 31 32 33 34 35 36 37 38 39
000
FTUS43 KGRB 240600 AAA
TAFRHI
TAF AMD
KRHI 240659Z 2407/2506 00000KT 3SM BR SCT045
      TEMPO 2407/2411 1/2SM FG BKN002
     FM241200 25004KT 5SM BR SKC
     FM241300 25005KT P6SM SCT200
     FM242300 21003KT P6SM BKN100=

USA.gov is the U.S. government's official web portal to all federal, state and local government web resources and services.